createdAt,value
2023-01-03T00:01:39.136Z,98.93
2023-01-03T00:04:05.951Z,98.77
2023-01-03T00:06:44.491Z,98.73
2023-01-03T00:09:16.255Z,98.26
2023-01-03T00:11:43.316Z,98.01
2023-01-03T00:14:23.805Z,98.65
2023-01-03T00:16:52.043Z,97.75
2023-01-03T00:19:18.711Z,98.65
2023-01-03T00:21:45.222Z,98.00
2023-01-03T00:24:11.814Z,98.25
2023-01-03T00:26:38.391Z,97.25
2023-01-03T00:29:04.956Z,97.50
2023-01-03T00:31:31.599Z,97.17
2023-01-03T00:33:58.128Z,97.65
2023-01-03T00:36:24.724Z,97.01
2023-01-03T00:38:51.316Z,97.34
2023-01-03T00:41:18.465Z,96.15
2023-01-03T00:43:47.241Z,96.32
2023-01-03T00:46:14.428Z,96.24
2023-01-03T00:48:41.092Z,95.98
2023-01-03T00:51:17.516Z,96.50
2023-01-03T00:53:45.326Z,95.59
2023-01-03T00:56:16.915Z,96.19
2023-01-03T00:58:43.564Z,95.49
2023-01-03T01:01:14.610Z,94.41
2023-01-03T01:03:42.569Z,93.90
2023-01-03T01:06:17.393Z,93.33
2023-01-03T01:08:44.140Z,93.51
2023-01-03T01:11:11.239Z,93.66
2023-01-03T01:13:38.109Z,93.52
2023-01-03T01:16:08.636Z,93.29
2023-01-03T01:18:35.538Z,92.95
2023-01-03T01:21:06.615Z,93.11
2023-01-03T01:23:34.899Z,92.24
2023-01-03T01:26:02.390Z,92.86
2023-01-03T01:28:28.960Z,91.96
2023-01-03T01:30:58.656Z,92.65
2023-01-03T01:33:25.318Z,92.67
2023-01-03T01:35:51.880Z,91.85
2023-01-03T01:38:21.461Z,91.75
2023-01-03T01:40:47.997Z,92.12
2023-01-03T01:43:21.189Z,92.00
2023-01-03T01:45:47.763Z,92.40
2023-01-03T01:48:14.319Z,91.68
2023-01-03T01:50:42.235Z,91.36
2023-01-03T01:53:29.452Z,92.03
2023-01-03T01:56:00.237Z,91.88
2023-01-03T01:58:28.787Z,91.67
2023-01-03T02:00:55.372Z,91.06
2023-01-03T02:03:21.977Z,91.88
2023-01-03T02:05:50.206Z,91.90
2023-01-03T02:08:17.037Z,91.90
2023-01-03T02:10:59.973Z,91.16
2023-01-03T02:13:26.422Z,90.83
2023-01-03T02:16:05.898Z,90.94
2023-01-03T02:18:32.358Z,91.15
2023-01-03T02:21:09.823Z,91.30
2023-01-03T02:24:14.166Z,91.82
2023-01-03T02:26:52.807Z,91.60
2023-01-03T02:29:43.741Z,90.47
2023-01-03T02:32:23.283Z,91.41
2023-01-03T02:35:16.557Z,91.14
2023-01-03T02:37:49.925Z,91.30
2023-01-03T02:40:25.598Z,90.62
2023-01-03T02:42:57.952Z,91.00
2023-01-03T02:45:50.068Z,91.41
2023-01-03T02:48:20.066Z,91.07
2023-01-03T02:50:48.764Z,92.58
2023-01-03T02:53:18.319Z,91.91
2023-01-03T02:55:44.927Z,91.38
2023-01-03T02:58:17.587Z,91.91
2023-01-03T03:00:46.231Z,90.91
2023-01-03T03:03:14.170Z,90.92
2023-01-03T03:06:22.057Z,91.13
2023-01-03T03:08:48.769Z,92.27
2023-01-03T03:11:15.608Z,92.29
2023-01-03T03:13:48.826Z,91.50
2023-01-03T03:16:22.494Z,91.93
2023-01-03T03:18:57.754Z,91.52
2023-01-03T03:21:24.271Z,91.86
2023-01-03T03:23:51.963Z,91.87
2023-01-03T03:26:21.596Z,92.03
2023-01-03T03:28:50.807Z,92.80
2023-01-03T03:31:57.761Z,92.92
2023-01-03T03:34:29.388Z,92.89
2023-01-03T03:37:02.182Z,93.06
2023-01-03T03:39:28.861Z,93.01
2023-01-03T03:41:57.327Z,93.69
2023-01-03T03:44:31.966Z,93.72
2023-01-03T03:47:04.799Z,92.77
2023-01-03T03:49:31.432Z,93.51
2023-01-03T03:51:58.894Z,93.09
2023-01-03T03:54:25.620Z,94.37
2023-01-03T03:57:00.102Z,94.40
2023-01-03T03:59:26.786Z,94.63
2023-01-03T04:01:53.445Z,93.74
2023-01-03T04:04:23.037Z,94.67
2023-01-03T04:06:50.410Z,94.40
2023-01-03T04:09:17.065Z,95.55
2023-01-03T04:11:43.586Z,95.73
2023-01-03T04:14:10.318Z,94.88
2023-01-03T04:16:37.021Z,94.98
2023-01-03T04:19:04.458Z,96.21
2023-01-03T04:21:31.023Z,96.88
2023-01-03T04:23:57.765Z,97.08
2023-01-03T04:26:25.085Z,97.10
2023-01-03T04:28:51.666Z,96.22
2023-01-03T04:31:18.270Z,96.08
2023-01-03T04:33:44.802Z,96.53
2023-01-03T04:36:12.091Z,96.24
2023-01-03T04:38:38.600Z,96.75
2023-01-03T04:41:07.048Z,97.08
2023-01-03T04:43:33.606Z,96.87
2023-01-03T04:46:00.226Z,95.67
2023-01-03T04:48:26.793Z,96.14
2023-01-03T04:50:57.162Z,96.00
2023-01-03T04:53:24.324Z,97.26
2023-01-03T04:55:51.542Z,97.41
2023-01-03T04:58:18.172Z,96.82
2023-01-03T05:00:44.778Z,97.26
2023-01-03T05:03:11.391Z,97.09
2023-01-03T05:05:38.251Z,96.97
2023-01-03T05:08:08.636Z,97.12
2023-01-03T05:10:35.274Z,97.91
2023-01-03T05:13:01.843Z,97.42
2023-01-03T05:15:29.106Z,98.85
2023-01-03T05:17:55.624Z,98.19
2023-01-03T05:20:22.448Z,98.09
2023-01-03T05:22:48.972Z,98.26
2023-01-03T05:25:15.615Z,98.69
2023-01-03T05:27:42.199Z,99.00
2023-01-03T05:30:09.061Z,98.89
2023-01-03T05:32:35.621Z,99.61
2023-01-03T05:35:02.160Z,99.46
2023-01-03T05:37:29.037Z,99.37
2023-01-03T05:39:55.584Z,99.12
2023-01-03T05:42:22.589Z,99.36
2023-01-03T05:44:49.126Z,98.67
2023-01-03T05:47:15.689Z,99.85
2023-01-03T05:49:42.295Z,99.10
2023-01-03T05:52:08.863Z,100.00
2023-01-03T05:54:35.477Z,99.19
2023-01-03T05:57:02.175Z,98.99
2023-01-03T05:59:28.930Z,99.03
2023-01-03T06:01:55.652Z,98.62
2023-01-03T06:04:22.422Z,99.48
2023-01-03T06:06:49.088Z,99.25
2023-01-03T06:09:15.827Z,99.56
2023-01-03T06:11:42.408Z,98.54
2023-01-03T06:14:08.963Z,98.87
2023-01-03T06:16:35.900Z,99.00
2023-01-03T06:19:02.641Z,98.67
2023-01-03T06:21:29.221Z,99.67
2023-01-03T06:23:55.981Z,99.86
2023-01-03T06:26:23.209Z,99.01
2023-01-03T06:28:50.089Z,99.37
2023-01-03T06:31:16.750Z,98.81
2023-01-03T06:33:43.393Z,98.55
2023-01-03T06:36:11.542Z,99.34
2023-01-03T06:38:38.247Z,99.09
2023-01-03T06:41:05.342Z,99.00
2023-01-03T06:43:31.935Z,99.86
2023-01-03T06:45:58.973Z,99.40
2023-01-03T06:48:25.573Z,98.35
2023-01-03T06:50:52.125Z,98.38
2023-01-03T06:53:20.499Z,98.70
2023-01-03T06:55:52.710Z,99.25
2023-01-03T06:58:22.854Z,98.34
2023-01-03T07:00:49.465Z,98.48
2023-01-03T07:03:15.994Z,98.56
2023-01-03T07:05:42.597Z,98.51
2023-01-03T07:08:09.315Z,98.47
2023-01-03T07:10:35.867Z,99.60
2023-01-03T07:13:02.797Z,100.00
2023-01-03T07:15:29.434Z,100.00
2023-01-03T07:17:56.082Z,100.00
2023-01-03T07:20:22.764Z,100.00
2023-01-03T07:22:49.350Z,100.00
2023-01-03T07:25:16.117Z,100.00
2023-01-03T07:27:42.706Z,100.00
2023-01-03T07:30:09.921Z,99.99
2023-01-03T07:32:36.517Z,99.97
2023-01-03T07:35:03.157Z,99.68
2023-01-03T07:37:29.843Z,100.00
2023-01-03T07:39:56.519Z,100.00
2023-01-03T07:42:23.040Z,100.00
2023-01-03T07:44:49.759Z,100.00
2023-01-03T07:47:16.339Z,100.00
2023-01-03T07:49:42.918Z,100.00
2023-01-03T07:52:09.472Z,100.00
2023-01-03T07:54:36.011Z,100.00
2023-01-03T07:57:02.690Z,100.00
2023-01-03T07:59:29.259Z,100.00
2023-01-03T08:01:56.241Z,100.00
2023-01-03T08:04:23.111Z,100.00
2023-01-03T08:06:49.707Z,100.00
2023-01-03T08:09:16.687Z,100.00
2023-01-03T08:11:43.223Z,100.00
2023-01-03T08:14:09.771Z,100.00
2023-01-03T08:16:38.035Z,100.00
2023-01-03T08:19:04.681Z,100.00
2023-01-03T08:21:31.198Z,100.00
2023-01-03T08:23:57.754Z,100.00
2023-01-03T08:26:24.288Z,100.00
2023-01-03T08:28:51.433Z,100.00
2023-01-03T08:31:19.487Z,100.00
2023-01-03T08:33:52.327Z,100.00
2023-01-03T08:36:19.178Z,100.00
2023-01-03T08:38:49.066Z,100.00
2023-01-03T08:41:17.656Z,100.00
2023-01-03T08:43:44.296Z,100.00
2023-01-03T08:46:11.770Z,100.00
2023-01-03T08:48:38.418Z,100.00
2023-01-03T08:51:05.296Z,100.00
2023-01-03T08:53:31.859Z,100.00
2023-01-03T08:55:58.409Z,100.00
2023-01-03T08:58:25.635Z,100.00
2023-01-03T09:00:52.180Z,100.00
2023-01-03T09:03:18.915Z,100.00
2023-01-03T09:05:45.976Z,100.00
2023-01-03T09:08:12.661Z,100.00
2023-01-03T09:10:43.601Z,100.00
2023-01-03T09:13:13.835Z,100.00
2023-01-03T09:15:40.405Z,100.00
2023-01-03T09:18:07.109Z,100.00
2023-01-03T09:20:33.839Z,100.00
2023-01-03T09:23:00.400Z,100.00
2023-01-03T09:25:30.412Z,100.00
2023-01-03T09:27:59.957Z,100.00
2023-01-03T09:30:26.586Z,100.00
2023-01-03T09:32:53.224Z,100.00
2023-01-03T09:35:19.745Z,100.00
2023-01-03T09:37:49.671Z,100.00
2023-01-03T09:40:16.290Z,100.00
2023-01-03T09:42:42.983Z,100.00
2023-01-03T09:45:13.941Z,100.00
2023-01-03T09:47:40.471Z,100.00
2023-01-03T09:52:53.802Z,99.67
2023-01-03T09:55:26.902Z,99.39
2023-01-03T09:57:53.417Z,99.07
2023-01-03T10:00:27.994Z,99.19
2023-01-03T10:03:08.348Z,99.02
2023-01-03T10:05:47.104Z,97.79
2023-01-03T10:08:32.029Z,96.80
2023-01-03T10:11:04.069Z,96.27
2023-01-03T10:13:55.444Z,96.67
2023-01-03T10:16:37.763Z,94.38
2023-01-03T10:19:32.779Z,94.57
2023-01-03T10:22:11.745Z,93.34
2023-01-03T10:24:54.468Z,93.16
2023-01-03T10:27:22.462Z,93.41
2023-01-03T10:29:50.361Z,93.19
2023-01-03T10:32:19.415Z,93.16
2023-01-03T10:35:01.151Z,93.95
2023-01-03T10:37:27.691Z,93.72
2023-01-03T10:40:06.101Z,94.26
2023-01-03T10:42:33.632Z,93.87
2023-01-03T10:45:05.504Z,93.66
2023-01-03T10:47:32.140Z,94.05
2023-01-03T10:49:59.890Z,93.87
2023-01-03T10:52:30.752Z,94.05
2023-01-03T10:55:02.122Z,93.67
2023-01-03T10:58:00.141Z,93.02
2023-01-03T11:00:28.115Z,93.00
2023-01-03T11:02:56.520Z,93.02
2023-01-03T11:05:26.410Z,91.94
2023-01-03T11:07:57.929Z,91.67
2023-01-03T11:10:25.036Z,92.34
2023-01-03T11:12:52.443Z,92.01
2023-01-03T11:15:39.199Z,91.76
2023-01-03T11:18:18.747Z,92.58
2023-01-03T11:21:09.790Z,91.73
2023-01-03T11:23:55.115Z,92.20
2023-01-03T11:26:35.688Z,89.86
2023-01-03T11:29:02.088Z,89.58
2023-01-03T11:31:57.492Z,90.24
2023-01-03T11:35:03.062Z,89.71
2023-01-03T11:37:31.225Z,89.56
2023-01-03T11:40:22.091Z,88.93
2023-01-03T11:43:18.750Z,90.04
2023-01-03T11:46:23.690Z,90.13
2023-01-03T11:49:06.339Z,88.79
2023-01-03T11:51:58.591Z,89.80
2023-01-03T11:55:03.212Z,89.96
2023-01-03T11:57:53.542Z,89.21
2023-01-03T12:00:41.699Z,89.60
2023-01-03T12:03:30.121Z,89.93
2023-01-03T12:06:00.288Z,89.23
2023-01-03T12:08:35.770Z,89.77
2023-01-03T12:11:21.527Z,88.95
2023-01-03T12:14:24.236Z,89.46
2023-01-03T12:17:01.748Z,89.48
2023-01-03T12:19:42.185Z,90.63
2023-01-03T12:22:22.277Z,90.32
2023-01-03T12:25:05.027Z,90.30
2023-01-03T12:27:41.667Z,90.85
2023-01-03T12:30:23.823Z,90.90
2023-01-03T12:32:53.872Z,90.62
2023-01-03T12:35:43.252Z,91.06
2023-01-03T12:38:09.815Z,90.75
2023-01-03T12:40:43.611Z,90.46
2023-01-03T12:43:15.893Z,91.16
2023-01-03T12:45:42.294Z,90.04
2023-01-03T12:48:33.228Z,90.87
2023-01-03T12:50:59.830Z,90.67
2023-01-03T12:53:47.377Z,90.62
2023-01-03T12:56:37.550Z,91.32
2023-01-03T12:59:19.348Z,90.99
2023-01-03T13:01:48.496Z,90.93
2023-01-03T13:04:22.861Z,90.62
2023-01-03T13:06:52.720Z,91.09
2023-01-03T13:09:27.481Z,91.26
2023-01-03T13:11:54.564Z,91.22
2023-01-03T13:14:22.921Z,91.00
2023-01-03T13:16:56.757Z,90.99
2023-01-03T13:19:23.183Z,91.63
2023-01-03T13:21:56.231Z,91.25
2023-01-03T13:24:42.560Z,90.64
2023-01-03T13:27:20.153Z,90.96
2023-01-03T13:29:49.385Z,91.53
2023-01-03T13:32:16.988Z,90.76
2023-01-03T13:34:43.714Z,90.93
2023-01-03T13:37:14.875Z,90.27
2023-01-03T13:39:45.667Z,90.94
2023-01-03T13:42:33.583Z,91.01
2023-01-03T13:45:15.477Z,90.92
2023-01-03T13:47:52.152Z,90.94
2023-01-03T13:50:23.361Z,90.70
2023-01-03T13:53:01.985Z,90.74
2023-01-03T13:55:47.894Z,90.02
2023-01-03T13:58:34.120Z,89.87
2023-01-03T14:01:06.147Z,89.60
2023-01-03T14:04:11.212Z,89.41
2023-01-03T14:07:10.608Z,89.95
2023-01-03T14:09:55.189Z,90.27
2023-01-03T14:12:37.308Z,89.47
2023-01-03T14:15:23.078Z,89.57
2023-01-03T14:17:56.519Z,89.23
2023-01-03T14:20:34.229Z,90.62
2023-01-03T14:23:17.136Z,90.97
2023-01-03T14:25:49.233Z,90.18
2023-01-03T14:28:18.553Z,89.73
2023-01-03T14:30:45.486Z,90.81
2023-01-03T14:33:18.790Z,89.93
2023-01-03T14:35:45.649Z,90.30
2023-01-03T14:38:23.926Z,90.90
2023-01-03T14:40:50.487Z,91.03
2023-01-03T14:43:21.597Z,90.63
2023-01-03T14:46:05.625Z,91.16
2023-01-03T14:48:32.320Z,92.31
2023-01-03T14:51:03.083Z,92.05
2023-01-03T14:53:30.170Z,91.74
2023-01-03T14:55:56.717Z,92.19
2023-01-03T14:58:34.586Z,92.10
2023-01-03T15:01:02.673Z,92.78
2023-01-03T15:03:36.999Z,93.36
2023-01-03T15:06:25.452Z,94.76
2023-01-03T15:08:53.682Z,95.44
2023-01-03T15:11:31.222Z,95.52
2023-01-03T15:14:03.030Z,94.44
2023-01-03T15:16:30.505Z,94.10
2023-01-03T15:19:18.980Z,95.99
2023-01-03T15:21:45.524Z,95.48
2023-01-03T15:24:16.986Z,94.98
2023-01-03T15:26:48.462Z,95.50
2023-01-03T15:29:19.599Z,95.69
2023-01-03T15:31:55.194Z,96.18
2023-01-03T15:34:30.355Z,96.58
2023-01-03T15:37:01.786Z,96.65
2023-01-03T15:39:49.276Z,96.24
2023-01-03T15:42:43.978Z,95.32
2023-01-03T15:45:11.274Z,96.49
2023-01-03T15:47:37.827Z,96.45
2023-01-03T15:50:04.793Z,96.62
2023-01-03T15:52:31.424Z,97.10
2023-01-03T15:54:57.955Z,96.72
2023-01-03T15:57:28.482Z,96.58
2023-01-03T15:59:56.375Z,97.17
2023-01-03T16:02:23.037Z,96.04
2023-01-03T16:04:49.729Z,95.37
2023-01-03T16:07:16.297Z,95.80
2023-01-03T16:09:42.954Z,95.56
2023-01-03T16:12:22.992Z,96.76
2023-01-03T16:14:51.409Z,96.50
2023-01-03T16:17:24.920Z,96.77
2023-01-03T16:19:51.831Z,97.39
2023-01-03T16:22:35.367Z,97.57
2023-01-03T16:25:04.267Z,96.97
2023-01-03T16:27:31.897Z,97.22
2023-01-03T16:29:58.630Z,97.02
2023-01-03T16:32:26.924Z,97.81
2023-01-03T16:35:01.215Z,96.75
2023-01-03T16:37:27.857Z,97.35
2023-01-03T16:39:54.452Z,96.51
2023-01-03T16:42:21.037Z,96.81
2023-01-03T16:44:47.673Z,96.16
2023-01-03T16:47:20.870Z,97.08
2023-01-03T16:49:49.657Z,96.76
2023-01-03T16:52:16.454Z,96.50
2023-01-03T16:54:43.179Z,96.73
2023-01-03T16:57:19.824Z,96.10
2023-01-03T16:59:46.811Z,96.42
2023-01-03T17:02:13.539Z,96.11
2023-01-03T17:04:40.940Z,96.79
2023-01-03T17:07:19.652Z,96.50
2023-01-03T17:09:46.462Z,96.93
2023-01-03T17:12:12.982Z,97.34
2023-01-03T17:14:39.601Z,97.28
2023-01-03T17:17:11.864Z,97.75
2023-01-03T17:22:25.317Z,97.49
2023-01-03T17:24:51.882Z,97.87
2023-01-03T17:27:20.568Z,97.44
2023-01-03T17:29:50.162Z,98.04
2023-01-03T17:32:18.840Z,98.12
2023-01-03T17:34:45.484Z,97.94
2023-01-03T17:37:19.741Z,97.26
2023-01-03T17:39:49.737Z,97.30
2023-01-03T17:42:16.382Z,97.26
2023-01-03T17:44:44.118Z,97.35
2023-01-03T17:47:16.711Z,97.74
2023-01-03T17:49:43.295Z,97.60
2023-01-03T17:52:09.890Z,97.16
2023-01-03T17:54:39.921Z,97.16
2023-01-03T17:57:06.535Z,96.95
2023-01-03T17:59:33.166Z,97.59
2023-01-03T18:01:59.864Z,98.33
2023-01-03T18:04:44.127Z,97.86
2023-01-03T18:07:17.238Z,97.64
2023-01-03T18:09:43.765Z,97.98
2023-01-03T18:12:15.687Z,97.99
2023-01-03T18:14:42.254Z,98.30
2023-01-03T18:17:31.018Z,97.65
2023-01-03T18:19:58.668Z,97.93
2023-01-03T18:22:25.309Z,98.40
2023-01-03T18:24:52.467Z,98.37
2023-01-03T18:27:20.344Z,98.14
2023-01-03T18:29:46.976Z,97.45
2023-01-03T18:32:26.531Z,97.81
2023-01-03T18:34:53.639Z,98.69
2023-01-03T18:37:20.943Z,97.58
2023-01-03T18:39:47.530Z,99.05
2023-01-03T18:42:14.110Z,99.26
2023-01-03T18:44:40.677Z,99.48
2023-01-03T18:47:10.876Z,99.60
2023-01-03T18:49:37.442Z,98.77
2023-01-03T18:52:04.107Z,98.68
2023-01-03T18:54:30.675Z,98.16
2023-01-03T18:56:57.429Z,97.76
2023-01-03T18:59:25.528Z,98.71
2023-01-03T19:01:53.977Z,98.22
2023-01-03T19:04:20.710Z,98.92
2023-01-03T19:06:48.292Z,97.79
2023-01-03T19:09:19.976Z,98.17
2023-01-03T19:11:46.540Z,98.32
2023-01-03T19:14:13.616Z,98.48
2023-01-03T19:16:40.857Z,97.85
2023-01-03T19:19:07.525Z,97.54
2023-01-03T19:21:35.409Z,97.91
2023-01-03T19:24:03.156Z,97.94
2023-01-03T19:26:41.101Z,97.75
2023-01-03T19:29:10.657Z,97.86
2023-01-03T19:31:41.978Z,98.32
2023-01-03T19:34:16.330Z,98.71
2023-01-03T19:36:42.857Z,98.28
2023-01-03T19:39:09.677Z,98.46
2023-01-03T19:41:37.285Z,98.68
2023-01-03T19:44:04.271Z,99.55
2023-01-03T19:46:30.917Z,98.69
2023-01-03T19:48:57.469Z,99.45
2023-01-03T19:51:24.018Z,99.52
2023-01-03T19:53:51.501Z,98.24
2023-01-03T19:56:22.246Z,98.54
2023-01-03T19:58:50.543Z,98.17
2023-01-03T20:01:17.228Z,98.00
2023-01-03T20:03:44.171Z,98.55
2023-01-03T20:06:15.895Z,99.51
2023-01-03T20:08:42.523Z,99.69
2023-01-03T20:11:16.909Z,100.00
2023-01-03T20:13:45.510Z,98.58
2023-01-03T20:16:12.161Z,98.75
2023-01-03T20:18:38.715Z,98.26
2023-01-03T20:21:06.815Z,98.12
2023-01-03T20:23:36.320Z,98.54
2023-01-03T20:26:04.462Z,98.30
2023-01-03T20:28:31.189Z,98.92
2023-01-03T20:30:58.874Z,98.77
2023-01-03T20:33:25.661Z,97.94
2023-01-03T20:36:14.449Z,98.37
2023-01-03T20:38:40.939Z,98.49
2023-01-03T20:41:07.473Z,98.60
2023-01-03T20:43:33.983Z,98.82
2023-01-03T20:46:00.528Z,99.81
2023-01-03T20:48:27.112Z,99.28
2023-01-03T20:50:53.702Z,98.87
2023-01-03T20:53:22.239Z,98.22
2023-01-03T20:55:49.072Z,98.43
2023-01-03T20:58:16.793Z,99.03
2023-01-03T21:00:43.512Z,98.46
2023-01-03T21:03:10.377Z,98.65
2023-01-03T21:05:37.216Z,98.61
2023-01-03T21:08:04.611Z,98.05
2023-01-03T21:10:33.398Z,98.10
2023-01-03T21:12:59.955Z,97.77
2023-01-03T21:15:26.556Z,98.02
2023-01-03T21:17:53.074Z,98.24
2023-01-03T21:20:21.928Z,98.94
2023-01-03T21:22:48.619Z,99.33
2023-01-03T21:25:23.972Z,98.91
2023-01-03T21:27:50.662Z,98.41
2023-01-03T21:30:17.969Z,98.47
2023-01-03T21:32:44.554Z,99.05
2023-01-03T21:35:16.151Z,98.74
2023-01-03T21:37:42.921Z,99.22
2023-01-03T21:40:27.320Z,98.60
2023-01-03T21:43:01.505Z,97.84
2023-01-03T21:45:45.431Z,97.99
2023-01-03T21:48:13.487Z,98.17
2023-01-03T21:50:41.566Z,98.20
2023-01-03T21:53:14.715Z,98.48
2023-01-03T21:55:41.277Z,98.44
2023-01-03T21:58:07.826Z,98.41
2023-01-03T22:00:34.538Z,98.26
2023-01-03T22:03:01.313Z,99.11
2023-01-03T22:05:28.332Z,99.02
2023-01-03T22:07:54.885Z,98.80
2023-01-03T22:10:22.073Z,98.47
2023-01-03T22:12:54.083Z,99.58
2023-01-03T22:15:21.135Z,98.56
2023-01-03T22:17:48.079Z,98.72
2023-01-03T22:20:15.609Z,98.79
2023-01-03T22:22:42.447Z,98.82
2023-01-03T22:25:10.076Z,98.76
2023-01-03T22:27:36.661Z,98.80
2023-01-03T22:30:07.126Z,98.08
2023-01-03T22:32:33.785Z,98.36
2023-01-03T22:35:00.416Z,98.22
2023-01-03T22:37:26.952Z,97.76
2023-01-03T22:39:53.578Z,97.99
2023-01-03T22:42:20.121Z,98.29
2023-01-03T22:44:46.767Z,97.98
2023-01-03T22:47:13.366Z,97.31
2023-01-03T22:49:39.940Z,98.78
2023-01-03T22:52:07.041Z,98.46
2023-01-03T22:54:34.263Z,97.86
2023-01-03T22:57:01.331Z,97.67
2023-01-03T22:59:27.889Z,99.23
2023-01-03T23:01:54.615Z,99.74
2023-01-03T23:04:21.422Z,99.54
2023-01-03T23:06:48.164Z,98.81
2023-01-03T23:09:14.931Z,98.94
2023-01-03T23:11:41.597Z,98.61
2023-01-03T23:14:09.854Z,98.72
2023-01-03T23:16:36.902Z,98.41
2023-01-03T23:19:04.927Z,98.69
2023-01-03T23:21:31.451Z,98.96
2023-01-03T23:23:58.230Z,98.70
2023-01-03T23:26:24.922Z,98.86
2023-01-03T23:28:58.368Z,98.77
2023-01-03T23:31:25.087Z,98.97
2023-01-03T23:33:56.947Z,99.10
2023-01-03T23:36:23.517Z,99.11
2023-01-03T23:38:50.163Z,99.22
2023-01-03T23:41:16.720Z,99.07
2023-01-03T23:43:43.708Z,99.30
2023-01-03T23:46:14.292Z,99.14
2023-01-03T23:48:40.980Z,99.93
2023-01-03T23:51:08.218Z,100.00
2023-01-03T23:53:39.048Z,99.77
2023-01-03T23:56:07.307Z,100.00
2023-01-03T23:58:33.893Z,100.00
